createdAt,value
2019-03-13T00:01:40.082Z,6.63
2019-03-13T00:04:10.801Z,6.63
2019-03-13T00:06:41.496Z,6.60
2019-03-13T00:09:13.257Z,6.57
2019-03-13T00:11:43.844Z,5.78
2019-03-13T00:14:14.836Z,5.05
2019-03-13T00:16:45.515Z,4.68
2019-03-13T00:19:16.150Z,4.59
2019-03-13T00:21:46.735Z,4.46
2019-03-13T00:24:17.425Z,4.29
2019-03-13T00:26:48.026Z,4.22
2019-03-13T00:29:18.672Z,4.10
2019-03-13T00:31:49.314Z,4.09
2019-03-13T00:34:19.914Z,4.07
2019-03-13T00:36:50.523Z,4.06
2019-03-13T00:39:21.122Z,4.08
2019-03-13T00:41:51.749Z,4.09
2019-03-13T00:44:22.380Z,4.09
2019-03-13T00:46:53.063Z,4.09
2019-03-13T00:49:23.733Z,4.13
2019-03-13T00:51:54.338Z,4.12
2019-03-13T00:54:25.017Z,4.09
2019-03-13T00:56:55.594Z,4.12
2019-03-13T00:59:26.226Z,4.16
2019-03-13T01:02:24.683Z,4.16
2019-03-13T01:05:01.420Z,4.16
2019-03-13T01:07:32.017Z,4.10
2019-03-13T01:10:02.638Z,4.14
2019-03-13T01:12:33.249Z,4.18
2019-03-13T01:15:04.088Z,4.16
2019-03-13T01:17:34.731Z,4.18
2019-03-13T01:20:05.813Z,4.17
2019-03-13T01:22:36.452Z,4.18
2019-03-13T01:25:07.708Z,4.15
2019-03-13T01:27:38.415Z,4.20
2019-03-13T01:30:10.254Z,4.19
2019-03-13T01:32:52.324Z,4.22
2019-03-13T01:35:42.113Z,4.28
2019-03-13T01:38:12.824Z,4.23
2019-03-13T01:40:43.425Z,4.22
2019-03-13T01:43:14.107Z,4.21
2019-03-13T01:45:44.706Z,4.28
2019-03-13T01:48:15.331Z,4.21
2019-03-13T01:50:46.079Z,4.21
2019-03-13T01:53:16.764Z,4.20
2019-03-13T01:55:47.429Z,4.19
2019-03-13T01:58:18.099Z,4.23
2019-03-13T02:00:48.723Z,4.22
2019-03-13T02:03:19.379Z,4.13
2019-03-13T02:05:50.040Z,4.17
2019-03-13T02:08:20.717Z,4.15
2019-03-13T02:10:51.390Z,4.15
2019-03-13T02:13:22.103Z,4.11
2019-03-13T02:15:53.136Z,4.06
2019-03-13T02:18:23.883Z,4.11
2019-03-13T02:20:54.576Z,4.11
2019-03-13T02:23:25.238Z,4.06
2019-03-13T02:25:56.067Z,4.05
2019-03-13T02:28:26.783Z,4.07
2019-03-13T02:30:57.442Z,4.05
2019-03-13T02:33:28.135Z,4.10
2019-03-13T02:35:58.855Z,4.07
2019-03-13T02:38:29.471Z,4.12
2019-03-13T02:41:00.126Z,4.08
2019-03-13T02:43:30.810Z,4.11
2019-03-13T02:46:01.481Z,4.15
2019-03-13T02:48:32.214Z,4.10
2019-03-13T02:51:02.877Z,4.14
2019-03-13T02:53:33.528Z,4.17
2019-03-13T02:56:04.195Z,4.12
2019-03-13T02:58:34.917Z,4.13
2019-03-13T03:01:22.161Z,4.27
2019-03-13T03:03:54.654Z,4.17
2019-03-13T03:06:25.432Z,4.21
2019-03-13T03:08:56.145Z,4.31
2019-03-13T03:11:26.855Z,4.28
2019-03-13T03:13:57.637Z,4.34
2019-03-13T03:16:28.388Z,4.31
2019-03-13T03:18:59.177Z,4.28
2019-03-13T03:21:29.936Z,4.30
2019-03-13T03:24:00.626Z,4.33
2019-03-13T03:26:31.338Z,4.32
2019-03-13T03:29:02.127Z,4.39
2019-03-13T03:31:32.898Z,4.38
2019-03-13T03:34:04.971Z,4.40
2019-03-13T03:36:35.779Z,4.49
2019-03-13T03:39:25.731Z,4.54
2019-03-13T03:41:56.488Z,4.61
2019-03-13T03:44:27.202Z,4.65
2019-03-13T03:46:57.893Z,4.61
2019-03-13T03:49:28.626Z,4.67
2019-03-13T03:51:59.388Z,4.67
2019-03-13T03:54:30.405Z,4.74
2019-03-13T03:57:01.197Z,4.72
2019-03-13T03:59:31.930Z,4.72
2019-03-13T04:02:02.837Z,4.78
2019-03-13T04:04:33.617Z,4.87
2019-03-13T04:07:04.345Z,4.81
2019-03-13T04:09:35.464Z,4.85
2019-03-13T04:12:06.191Z,4.85
2019-03-13T04:14:36.938Z,4.88
2019-03-13T04:17:07.699Z,4.92
2019-03-13T04:19:38.474Z,4.95
2019-03-13T04:22:09.211Z,4.92
2019-03-13T04:24:39.864Z,4.92
2019-03-13T04:27:10.553Z,4.89
2019-03-13T04:29:41.256Z,4.94
2019-03-13T04:32:12.079Z,5.00
2019-03-13T04:34:42.728Z,4.99
2019-03-13T04:37:13.519Z,5.00
2019-03-13T04:39:44.234Z,4.98
2019-03-13T04:42:14.967Z,5.00
2019-03-13T04:44:45.688Z,5.00
2019-03-13T04:47:16.543Z,4.96
2019-03-13T04:49:47.275Z,5.05
2019-03-13T04:52:17.981Z,5.01
2019-03-13T04:54:48.700Z,5.02
2019-03-13T04:57:19.472Z,5.01
2019-03-13T04:59:50.287Z,5.05
2019-03-13T05:02:20.827Z,5.10
2019-03-13T05:04:51.405Z,5.02
2019-03-13T05:07:21.936Z,5.09
2019-03-13T05:09:52.517Z,5.07
2019-03-13T05:12:23.004Z,5.07
2019-03-13T05:14:53.575Z,5.12
2019-03-13T05:17:24.100Z,5.16
2019-03-13T05:19:54.660Z,5.14
2019-03-13T05:22:27.898Z,5.16
2019-03-13T05:24:58.473Z,5.08
2019-03-13T05:27:29.048Z,5.09
2019-03-13T05:29:59.620Z,5.04
2019-03-13T05:32:30.223Z,5.05
2019-03-13T05:35:00.773Z,5.01
2019-03-13T05:37:31.252Z,5.10
2019-03-13T05:40:01.845Z,5.12
2019-03-13T05:42:32.356Z,5.10
2019-03-13T05:45:02.955Z,5.04
2019-03-13T05:47:33.518Z,5.02
2019-03-13T05:50:04.117Z,5.09
2019-03-13T05:52:34.737Z,5.16
2019-03-13T05:55:05.322Z,5.24
2019-03-13T05:57:35.897Z,5.21
2019-03-13T06:00:06.702Z,5.24
2019-03-13T06:02:37.199Z,5.21
2019-03-13T06:05:07.713Z,5.22
2019-03-13T06:07:38.175Z,5.23
2019-03-13T06:10:08.668Z,5.36
2019-03-13T06:12:39.138Z,5.45
2019-03-13T06:15:09.931Z,5.49
2019-03-13T06:17:40.411Z,5.47
2019-03-13T06:20:11.363Z,5.54
2019-03-13T06:22:41.889Z,5.61
2019-03-13T06:25:12.501Z,5.61
2019-03-13T06:27:46.070Z,5.60
2019-03-13T06:30:15.424Z,5.68
2019-03-13T06:32:45.894Z,5.59
2019-03-13T06:35:16.463Z,5.61
2019-03-13T06:37:46.986Z,5.66
2019-03-13T06:40:17.524Z,5.57
2019-03-13T06:42:48.033Z,5.65
2019-03-13T06:45:18.709Z,5.69
2019-03-13T06:47:49.227Z,5.67
2019-03-13T06:50:20.156Z,5.70
2019-03-13T06:52:50.629Z,5.73
2019-03-13T06:55:21.088Z,5.72
2019-03-13T06:57:51.602Z,5.66
2019-03-13T07:00:50.690Z,5.69
2019-03-13T07:03:42.912Z,5.65
2019-03-13T07:06:31.359Z,5.66
2019-03-13T07:09:26.950Z,5.77
2019-03-13T07:12:16.028Z,5.76
2019-03-13T07:15:08.477Z,5.74
2019-03-13T07:17:57.943Z,5.78
2019-03-13T07:20:45.801Z,5.79
2019-03-13T07:23:35.735Z,5.81
2019-03-13T07:26:14.600Z,5.76
2019-03-13T07:29:12.016Z,5.88
2019-03-13T07:31:54.673Z,5.89
2019-03-13T07:34:44.156Z,5.95
2019-03-13T07:37:36.560Z,5.90
2019-03-13T07:40:15.484Z,5.98
2019-03-13T07:43:01.960Z,5.91
2019-03-13T07:45:50.075Z,5.94
2019-03-13T07:48:27.736Z,6.00
2019-03-13T07:51:23.515Z,6.04
2019-03-13T07:54:01.528Z,6.04
2019-03-13T07:56:50.786Z,6.14
2019-03-13T07:59:55.657Z,6.07
2019-03-13T08:02:43.976Z,6.11
2019-03-13T08:05:19.000Z,6.08
2019-03-13T08:07:58.430Z,6.12
2019-03-13T08:10:53.645Z,6.08
2019-03-13T08:13:38.105Z,6.15
2019-03-13T08:16:33.856Z,6.09
2019-03-13T08:19:29.488Z,6.20
2019-03-13T08:22:17.872Z,6.20
2019-03-13T08:25:01.374Z,6.21
2019-03-13T08:27:43.520Z,6.20
2019-03-13T08:30:37.884Z,6.32
2019-03-13T08:33:36.491Z,6.18
2019-03-13T08:36:19.916Z,6.13
2019-03-13T08:39:08.352Z,6.19
2019-03-13T08:42:09.945Z,6.14
2019-03-13T08:44:46.872Z,6.17
2019-03-13T08:47:54.635Z,6.25
2019-03-13T08:50:46.198Z,6.33
2019-03-13T08:53:21.874Z,6.24
2019-03-13T08:56:17.404Z,6.31
2019-03-13T08:59:05.428Z,6.45
2019-03-13T09:01:53.835Z,6.39
2019-03-13T09:04:52.429Z,6.39
2019-03-13T09:07:40.466Z,6.47
2019-03-13T09:10:30.587Z,6.51
2019-03-13T09:13:12.679Z,6.55
2019-03-13T09:15:49.498Z,6.51
2019-03-13T09:18:38.857Z,6.63
2019-03-13T09:21:20.756Z,6.60
2019-03-13T09:24:02.514Z,6.69
2019-03-13T09:27:10.408Z,6.65
2019-03-13T09:30:02.630Z,6.64
2019-03-13T09:32:50.964Z,6.68
2019-03-13T09:35:43.203Z,6.69
2019-03-13T09:38:31.653Z,6.78
2019-03-13T09:41:21.050Z,6.77
2019-03-13T09:44:09.449Z,6.76
2019-03-13T09:46:58.861Z,6.79
2019-03-13T09:49:51.718Z,6.95
2019-03-13T09:52:33.917Z,7.02
2019-03-13T09:55:26.499Z,7.09
2019-03-13T09:58:15.095Z,7.08
2019-03-13T10:01:10.710Z,7.00
2019-03-13T10:04:09.389Z,6.91
2019-03-13T10:07:17.015Z,6.76
2019-03-13T10:09:58.919Z,6.70
2019-03-13T10:12:57.203Z,6.76
2019-03-13T10:15:43.290Z,6.80
2019-03-13T10:18:31.436Z,6.75
2019-03-13T10:21:22.839Z,6.75
2019-03-13T10:23:59.656Z,6.78
2019-03-13T10:26:52.871Z,6.81
2019-03-13T10:29:28.359Z,6.78
2019-03-13T10:32:16.976Z,6.81
2019-03-13T10:34:53.858Z,6.78
2019-03-13T10:37:46.259Z,6.86
2019-03-13T10:40:41.556Z,6.94
2019-03-13T10:43:46.387Z,6.87
2019-03-13T10:46:47.969Z,6.95
2019-03-13T10:49:40.564Z,6.96
2019-03-13T10:52:16.035Z,6.82
2019-03-13T10:55:00.484Z,6.76
2019-03-13T10:57:49.854Z,6.71
2019-03-13T11:00:42.141Z,6.52
2019-03-13T11:03:27.956Z,6.51
2019-03-13T11:06:16.106Z,6.48
2019-03-13T11:09:11.575Z,6.41
2019-03-13T11:12:00.892Z,6.42
2019-03-13T11:14:51.596Z,6.33
2019-03-13T11:17:40.059Z,6.28
2019-03-13T11:20:24.294Z,6.33
2019-03-13T11:23:05.331Z,6.27
2019-03-13T11:25:51.355Z,6.19
2019-03-13T11:28:56.297Z,6.17
2019-03-13T11:31:44.837Z,6.12
2019-03-13T11:34:26.687Z,6.18
2019-03-13T11:37:19.324Z,6.16
2019-03-13T11:40:07.549Z,6.23
2019-03-13T11:42:53.826Z,6.30
2019-03-13T11:45:32.517Z,6.27
2019-03-13T11:48:20.873Z,6.20
2019-03-13T11:51:05.291Z,6.24
2019-03-13T11:53:58.043Z,6.19
2019-03-13T11:56:47.299Z,6.32
2019-03-13T11:59:45.755Z,6.14
2019-03-13T12:02:37.957Z,6.11
2019-03-13T12:05:19.799Z,6.10
2019-03-13T12:08:15.071Z,6.08
2019-03-13T12:11:01.470Z,6.07
2019-03-13T12:13:45.494Z,6.11
2019-03-13T12:16:29.045Z,6.21
2019-03-13T12:19:12.544Z,6.29
2019-03-13T12:21:52.952Z,6.36
2019-03-13T12:24:51.238Z,6.35
2019-03-13T12:27:36.301Z,6.40
2019-03-13T12:30:33.748Z,6.57
2019-03-13T12:33:21.705Z,6.75
2019-03-13T12:36:11.159Z,6.73
2019-03-13T12:39:06.499Z,6.75
2019-03-13T12:41:49.144Z,6.80
2019-03-13T12:44:37.176Z,6.86
2019-03-13T12:47:21.022Z,6.90
2019-03-13T12:50:07.159Z,6.96
2019-03-13T12:52:56.545Z,7.16
2019-03-13T12:55:54.937Z,7.25
2019-03-13T12:58:43.105Z,7.25
2019-03-13T13:01:35.506Z,7.35
2019-03-13T13:04:13.565Z,7.35
2019-03-13T13:06:51.203Z,7.36
2019-03-13T13:09:50.575Z,7.43
2019-03-13T13:12:42.752Z,7.45
2019-03-13T13:15:50.542Z,7.68
2019-03-13T13:18:34.774Z,8.08
2019-03-13T13:21:05.283Z,7.99
2019-03-13T13:23:35.773Z,8.03
2019-03-13T13:26:06.603Z,8.10
2019-03-13T13:28:37.088Z,8.04
2019-03-13T13:31:07.632Z,7.74
2019-03-13T13:33:38.121Z,7.58
2019-03-13T13:36:09.216Z,7.62
2019-03-13T13:38:39.734Z,7.50
2019-03-13T13:41:10.245Z,7.66
2019-03-13T13:43:40.692Z,7.80
2019-03-13T13:46:32.261Z,7.79
2019-03-13T13:49:02.752Z,7.68
2019-03-13T13:51:33.274Z,7.61
2019-03-13T13:54:03.865Z,7.63
2019-03-13T13:56:34.396Z,7.50
2019-03-13T13:59:04.943Z,7.55
2019-03-13T14:01:35.442Z,7.57
2019-03-13T14:04:05.961Z,7.45
2019-03-13T14:06:36.446Z,7.58
2019-03-13T14:09:07.807Z,7.71
2019-03-13T14:11:38.285Z,7.71
2019-03-13T14:14:08.775Z,7.58
2019-03-13T14:16:39.301Z,7.30
2019-03-13T14:19:09.766Z,7.13
2019-03-13T14:21:40.244Z,7.05
2019-03-13T14:24:10.633Z,6.96
2019-03-13T14:26:41.116Z,6.86
2019-03-13T14:29:11.570Z,6.83
2019-03-13T14:31:42.123Z,6.70
2019-03-13T14:34:12.600Z,6.63
2019-03-13T14:36:43.122Z,6.59
2019-03-13T14:39:13.741Z,6.48
2019-03-13T14:41:44.208Z,6.42
2019-03-13T14:44:14.686Z,6.39
2019-03-13T14:46:45.214Z,6.32
2019-03-13T14:49:15.755Z,6.30
2019-03-13T14:51:46.314Z,6.38
2019-03-13T14:54:16.846Z,6.36
2019-03-13T14:56:47.381Z,6.30
2019-03-13T14:59:17.914Z,6.17
2019-03-13T15:01:48.535Z,6.03
2019-03-13T15:04:19.055Z,6.10
2019-03-13T15:06:49.541Z,6.00
2019-03-13T15:09:20.093Z,5.91
2019-03-13T15:11:50.600Z,5.88
2019-03-13T15:14:21.114Z,5.75
2019-03-13T15:16:53.292Z,5.68
2019-03-13T15:19:23.956Z,5.64
2019-03-13T15:21:54.438Z,5.60
2019-03-13T15:24:24.916Z,5.53
2019-03-13T15:26:55.340Z,5.44
2019-03-13T15:29:25.827Z,5.43
2019-03-13T15:31:56.394Z,5.45
2019-03-13T15:34:26.961Z,5.36
2019-03-13T15:36:57.524Z,5.40
2019-03-13T15:39:28.098Z,5.38
2019-03-13T15:41:58.695Z,5.48
2019-03-13T15:44:29.226Z,5.54
2019-03-13T15:46:59.737Z,5.63
2019-03-13T15:49:30.233Z,5.87
2019-03-13T15:52:00.779Z,6.13
2019-03-13T15:54:31.895Z,5.94
2019-03-13T15:57:02.413Z,5.82
2019-03-13T15:59:32.916Z,5.72
2019-03-13T16:02:03.482Z,5.60
2019-03-13T16:04:33.995Z,5.58
2019-03-13T16:07:04.513Z,5.50
2019-03-13T16:09:35.075Z,5.57
2019-03-13T16:12:05.593Z,5.53
2019-03-13T16:14:36.144Z,5.58
2019-03-13T16:17:06.734Z,5.56
2019-03-13T16:19:37.233Z,5.53
2019-03-13T16:22:08.874Z,5.52
2019-03-13T16:24:39.468Z,5.53
2019-03-13T16:27:10.023Z,5.51
2019-03-13T16:29:40.542Z,5.54
2019-03-13T16:32:12.751Z,5.50
2019-03-13T16:34:43.233Z,5.48
2019-03-13T16:37:13.731Z,5.54
2019-03-13T16:39:44.341Z,5.49
2019-03-13T16:42:14.861Z,5.50
2019-03-13T16:44:45.380Z,5.47
2019-03-13T16:47:15.942Z,5.44
2019-03-13T16:49:46.473Z,5.54
2019-03-13T16:52:16.921Z,5.43
2019-03-13T16:54:47.503Z,5.53
2019-03-13T16:57:18.076Z,5.49
2019-03-13T16:59:59.995Z,5.42
2019-03-13T17:02:21.080Z,5.42
2019-03-13T17:04:51.636Z,5.52
2019-03-13T17:07:22.110Z,5.40
2019-03-13T17:09:52.684Z,5.37
2019-03-13T17:12:23.180Z,5.31
2019-03-13T17:14:53.686Z,5.25
2019-03-13T17:17:24.230Z,5.32
2019-03-13T17:19:54.750Z,5.28
2019-03-13T17:22:25.281Z,5.26
2019-03-13T17:24:55.830Z,5.23
2019-03-13T17:27:26.266Z,5.27
2019-03-13T17:29:56.812Z,5.24
2019-03-13T17:32:27.351Z,5.29
2019-03-13T17:34:57.894Z,5.22
2019-03-13T17:37:28.370Z,5.20
2019-03-13T17:39:58.919Z,5.16
2019-03-13T17:42:29.485Z,5.14
2019-03-13T17:45:00.374Z,5.09
2019-03-13T17:47:31.204Z,5.08
2019-03-13T17:50:01.714Z,5.13
2019-03-13T17:52:32.148Z,5.07
2019-03-13T17:55:02.704Z,5.08
2019-03-13T17:57:34.199Z,5.07
2019-03-13T18:00:05.614Z,4.99
2019-03-13T18:02:36.177Z,5.08
2019-03-13T18:05:07.555Z,5.04
2019-03-13T18:07:38.141Z,5.05
2019-03-13T18:10:11.691Z,5.10
2019-03-13T18:12:42.222Z,5.08
2019-03-13T18:15:12.938Z,5.19
2019-03-13T18:17:43.616Z,5.24
2019-03-13T18:20:16.308Z,5.21
2019-03-13T18:22:46.941Z,5.22
2019-03-13T18:25:18.356Z,5.18
2019-03-13T18:27:49.902Z,5.26
2019-03-13T18:30:22.953Z,5.26
2019-03-13T18:32:53.572Z,5.24
2019-03-13T18:35:24.112Z,5.23
2019-03-13T18:37:54.712Z,5.32
2019-03-13T18:40:25.971Z,5.25
2019-03-13T18:42:56.543Z,5.24
2019-03-13T18:45:27.611Z,5.32
2019-03-13T18:47:58.276Z,5.24
2019-03-13T18:50:35.624Z,5.21
2019-03-13T18:53:07.319Z,5.17
2019-03-13T18:55:38.027Z,5.22
2019-03-13T18:58:08.606Z,5.23
2019-03-13T19:00:39.408Z,5.26
2019-03-13T19:03:10.639Z,5.32
2019-03-13T19:05:41.265Z,5.30
2019-03-13T19:08:11.859Z,5.27
2019-03-13T19:10:42.770Z,5.31
2019-03-13T19:13:13.345Z,5.36
2019-03-13T19:15:43.991Z,5.45
2019-03-13T19:18:14.629Z,5.42
2019-03-13T19:20:45.196Z,5.42
2019-03-13T19:23:16.122Z,5.44
2019-03-13T19:25:46.814Z,5.53
2019-03-13T19:28:17.502Z,5.49
2019-03-13T19:30:48.129Z,5.55
2019-03-13T19:33:20.157Z,5.57
2019-03-13T19:35:52.444Z,5.58
2019-03-13T19:38:25.652Z,5.57
2019-03-13T19:40:58.459Z,5.58
2019-03-13T19:43:29.188Z,5.62
2019-03-13T19:45:59.814Z,5.62
2019-03-13T19:48:30.443Z,5.63
2019-03-13T19:51:01.243Z,5.63
2019-03-13T19:53:33.090Z,5.71
2019-03-13T19:56:03.742Z,5.72
2019-03-13T19:58:34.734Z,5.69
2019-03-13T20:01:06.014Z,5.68
2019-03-13T20:03:36.843Z,5.69
2019-03-13T20:06:12.029Z,5.71
2019-03-13T20:08:44.544Z,5.71
2019-03-13T20:11:15.199Z,5.77
2019-03-13T20:13:45.921Z,5.75
2019-03-13T20:16:16.751Z,5.80
2019-03-13T20:18:49.848Z,5.80
2019-03-13T20:21:20.697Z,5.79
2019-03-13T20:23:51.366Z,5.83
2019-03-13T20:26:22.057Z,5.87
2019-03-13T20:28:52.728Z,5.90
2019-03-13T20:31:23.394Z,5.90
2019-03-13T20:33:54.034Z,5.90
2019-03-13T20:36:24.750Z,5.89
2019-03-13T20:38:55.482Z,5.95
2019-03-13T20:41:26.114Z,5.92
2019-03-13T20:43:56.682Z,5.92
2019-03-13T20:46:27.186Z,5.96
2019-03-13T20:48:57.837Z,5.94
2019-03-13T20:51:28.435Z,5.92
2019-03-13T20:53:58.925Z,5.92
2019-03-13T20:56:29.499Z,5.97
2019-03-13T20:59:00.309Z,5.94
2019-03-13T21:01:30.980Z,5.94
2019-03-13T21:04:01.632Z,5.91
2019-03-13T21:06:32.180Z,5.95
2019-03-13T21:09:02.817Z,5.92
2019-03-13T21:11:33.380Z,5.93
2019-03-13T21:14:03.831Z,5.92
2019-03-13T21:16:34.450Z,5.96
2019-03-13T21:19:05.153Z,5.98
2019-03-13T21:21:35.741Z,5.95
2019-03-13T21:24:06.250Z,5.95
2019-03-13T21:26:36.844Z,5.92
2019-03-13T21:29:07.396Z,5.88
2019-03-13T21:31:38.166Z,5.87
2019-03-13T21:34:09.720Z,5.84
2019-03-13T21:36:40.429Z,5.85
2019-03-13T21:39:12.016Z,5.86
2019-03-13T21:41:42.667Z,5.87
2019-03-13T21:44:13.179Z,5.85
2019-03-13T21:46:43.698Z,5.84
2019-03-13T21:49:14.268Z,5.82
2019-03-13T21:51:44.819Z,5.79
2019-03-13T21:54:15.375Z,5.76
2019-03-13T21:56:45.955Z,5.79
2019-03-13T21:59:16.591Z,5.75
2019-03-13T22:01:47.093Z,5.75
2019-03-13T22:04:24.094Z,5.74
2019-03-13T22:06:49.888Z,5.69
2019-03-13T22:09:20.414Z,5.67
2019-03-13T22:11:51.041Z,5.57
2019-03-13T22:14:21.534Z,5.39
2019-03-13T22:16:52.033Z,5.33
2019-03-13T22:19:22.671Z,5.27
2019-03-13T22:21:53.224Z,5.22
2019-03-13T22:24:23.816Z,5.24
2019-03-13T22:26:54.414Z,5.24
2019-03-13T22:29:25.084Z,5.23
2019-03-13T22:31:55.777Z,5.26
2019-03-13T22:34:26.384Z,5.39
2019-03-13T22:36:56.971Z,5.46
2019-03-13T22:39:27.515Z,5.45
2019-03-13T22:41:58.191Z,5.48
2019-03-13T22:44:28.788Z,5.45
2019-03-13T22:46:59.497Z,5.48
2019-03-13T22:49:30.159Z,5.48
2019-03-13T22:52:01.173Z,5.43
2019-03-13T22:54:32.478Z,5.40
2019-03-13T22:57:03.649Z,5.37
2019-03-13T22:59:35.320Z,5.39
2019-03-13T23:02:09.635Z,5.35
2019-03-13T23:04:40.431Z,5.31
2019-03-13T23:07:11.616Z,5.37
2019-03-13T23:09:42.297Z,5.38
2019-03-13T23:12:13.098Z,5.39
2019-03-13T23:14:43.631Z,5.39
2019-03-13T23:17:14.654Z,5.44
2019-03-13T23:19:45.436Z,5.44
2019-03-13T23:22:15.983Z,5.39
2019-03-13T23:24:46.744Z,5.42
2019-03-13T23:27:17.612Z,5.42
2019-03-13T23:29:48.861Z,5.46
2019-03-13T23:32:19.459Z,5.44
2019-03-13T23:34:50.343Z,5.45
2019-03-13T23:37:21.085Z,5.43
2019-03-13T23:39:52.060Z,5.43
2019-03-13T23:42:22.708Z,5.42
2019-03-13T23:44:54.875Z,5.38
2019-03-13T23:47:25.849Z,5.42
2019-03-13T23:49:56.483Z,5.38
2019-03-13T23:52:27.126Z,5.36
2019-03-13T23:54:58.023Z,5.33
2019-03-13T23:57:28.896Z,5.32
